sensor_id;sensor_type;location;lat;lon;timestamp;P1;durP1;ratioP1;P2;durP2;ratioP2
41705;SDS011;27385;51.096;17.190;2022-07-23T00:00:28;16.90;;;8.30;;
41705;SDS011;27385;51.096;17.190;2022-07-23T00:03:04;15.70;;;7.80;;
41705;SDS011;27385;51.096;17.190;2022-07-23T00:05:36;16.70;;;7.90;;
41705;SDS011;27385;51.096;17.190;2022-07-23T00:08:07;15.70;;;8.20;;
41705;SDS011;27385;51.096;17.190;2022-07-23T00:10:39;16.20;;;7.60;;
41705;SDS011;27385;51.096;17.190;2022-07-23T00:13:10;16.60;;;8.40;;
41705;SDS011;27385;51.096;17.190;2022-07-23T00:15:41;16.70;;;8.40;;
41705;SDS011;27385;51.096;17.190;2022-07-23T00:18:13;17.30;;;8.50;;
41705;SDS011;27385;51.096;17.190;2022-07-23T00:20:45;20.30;;;9.20;;
41705;SDS011;27385;51.096;17.190;2022-07-23T00:23:17;17.40;;;9.00;;
41705;SDS011;27385;51.096;17.190;2022-07-23T00:25:49;15.90;;;8.20;;
41705;SDS011;27385;51.096;17.190;2022-07-23T00:28:20;15.90;;;8.10;;
41705;SDS011;27385;51.096;17.190;2022-07-23T00:30:51;21.40;;;8.90;;
41705;SDS011;27385;51.096;17.190;2022-07-23T00:33:22;17.00;;;7.60;;
41705;SDS011;27385;51.096;17.190;2022-07-23T00:35:54;14.20;;;7.60;;
41705;SDS011;27385;51.096;17.190;2022-07-23T00:38:25;19.90;;;8.60;;
41705;SDS011;27385;51.096;17.190;2022-07-23T00:40:56;20.00;;;8.80;;
41705;SDS011;27385;51.096;17.190;2022-07-23T00:43:27;15.90;;;7.70;;
41705;SDS011;27385;51.096;17.190;2022-07-23T00:45:58;16.10;;;7.60;;
41705;SDS011;27385;51.096;17.190;2022-07-23T00:48:30;17.40;;;8.40;;
41705;SDS011;27385;51.096;17.190;2022-07-23T00:51:02;17.60;;;9.10;;
41705;SDS011;27385;51.096;17.190;2022-07-23T00:53:33;18.00;;;8.40;;
41705;SDS011;27385;51.096;17.190;2022-07-23T00:56:06;19.70;;;8.60;;
41705;SDS011;27385;51.096;17.190;2022-07-23T00:58:38;19.90;;;8.90;;
41705;SDS011;27385;51.096;17.190;2022-07-23T01:01:13;17.70;;;9.00;;
41705;SDS011;27385;51.096;17.190;2022-07-23T01:03:44;17.00;;;9.20;;
41705;SDS011;27385;51.096;17.190;2022-07-23T01:06:16;18.20;;;10.60;;
41705;SDS011;27385;51.096;17.190;2022-07-23T01:08:47;20.20;;;9.80;;
41705;SDS011;27385;51.096;17.190;2022-07-23T01:11:18;17.00;;;8.80;;
41705;SDS011;27385;51.096;17.190;2022-07-23T01:13:52;17.40;;;9.00;;
41705;SDS011;27385;51.096;17.190;2022-07-23T01:16:23;21.90;;;8.10;;
41705;SDS011;27385;51.096;17.190;2022-07-23T01:18:54;16.90;;;8.90;;
41705;SDS011;27385;51.096;17.190;2022-07-23T01:21:26;14.70;;;7.60;;
41705;SDS011;27385;51.096;17.190;2022-07-23T01:23:58;20.00;;;9.50;;
41705;SDS011;27385;51.096;17.190;2022-07-23T01:26:29;17.10;;;9.30;;
41705;SDS011;27385;51.096;17.190;2022-07-23T01:29:01;15.10;;;8.20;;
41705;SDS011;27385;51.096;17.190;2022-07-23T01:31:34;17.70;;;9.70;;
41705;SDS011;27385;51.096;17.190;2022-07-23T01:34:05;17.40;;;8.70;;
41705;SDS011;27385;51.096;17.190;2022-07-23T01:36:37;17.30;;;8.90;;
41705;SDS011;27385;51.096;17.190;2022-07-23T01:39:08;19.70;;;8.50;;
41705;SDS011;27385;51.096;17.190;2022-07-23T01:41:39;17.40;;;9.00;;
41705;SDS011;27385;51.096;17.190;2022-07-23T01:44:11;15.20;;;7.80;;
41705;SDS011;27385;51.096;17.190;2022-07-23T01:46:42;17.60;;;8.50;;
41705;SDS011;27385;51.096;17.190;2022-07-23T01:49:13;17.20;;;8.50;;
41705;SDS011;27385;51.096;17.190;2022-07-23T01:51:44;19.30;;;8.20;;
41705;SDS011;27385;51.096;17.190;2022-07-23T01:54:28;16.00;;;8.70;;
41705;SDS011;27385;51.096;17.190;2022-07-23T01:57:00;18.80;;;9.20;;
41705;SDS011;27385;51.096;17.190;2022-07-23T01:59:31;19.70;;;9.30;;
41705;SDS011;27385;51.096;17.190;2022-07-23T02:02:03;17.90;;;8.90;;
41705;SDS011;27385;51.096;17.190;2022-07-23T02:04:34;26.20;;;11.10;;
41705;SDS011;27385;51.096;17.190;2022-07-23T02:07:05;22.10;;;9.90;;
41705;SDS011;27385;51.096;17.190;2022-07-23T02:09:37;36.90;;;10.50;;
41705;SDS011;27385;51.096;17.190;2022-07-23T02:12:09;33.40;;;10.70;;
41705;SDS011;27385;51.096;17.190;2022-07-23T02:14:40;22.10;;;9.00;;
41705;SDS011;27385;51.096;17.190;2022-07-23T02:17:11;21.10;;;10.50;;
41705;SDS011;27385;51.096;17.190;2022-07-23T02:19:42;26.30;;;10.60;;
41705;SDS011;27385;51.096;17.190;2022-07-23T02:22:13;22.40;;;10.00;;
41705;SDS011;27385;51.096;17.190;2022-07-23T02:24:46;21.10;;;9.80;;
41705;SDS011;27385;51.096;17.190;2022-07-23T02:27:18;25.30;;;10.30;;
41705;SDS011;27385;51.096;17.190;2022-07-23T02:29:49;23.40;;;9.50;;
41705;SDS011;27385;51.096;17.190;2022-07-23T02:32:21;21.00;;;9.10;;
41705;SDS011;27385;51.096;17.190;2022-07-23T02:34:52;20.30;;;10.40;;
41705;SDS011;27385;51.096;17.190;2022-07-23T02:37:25;21.60;;;9.50;;
41705;SDS011;27385;51.096;17.190;2022-07-23T02:39:56;21.70;;;9.60;;
41705;SDS011;27385;51.096;17.190;2022-07-23T02:42:27;18.90;;;8.80;;
41705;SDS011;27385;51.096;17.190;2022-07-23T02:44:58;16.40;;;8.20;;
41705;SDS011;27385;51.096;17.190;2022-07-23T02:47:29;21.00;;;9.30;;
41705;SDS011;27385;51.096;17.190;2022-07-23T02:50:00;19.60;;;8.90;;
41705;SDS011;27385;51.096;17.190;2022-07-23T02:52:34;19.30;;;8.20;;
41705;SDS011;27385;51.096;17.190;2022-07-23T02:55:06;19.40;;;9.70;;
41705;SDS011;27385;51.096;17.190;2022-07-23T02:57:39;19.00;;;10.40;;
41705;SDS011;27385;51.096;17.190;2022-07-23T03:00:12;22.90;;;10.70;;
41705;SDS011;27385;51.096;17.190;2022-07-23T03:02:43;21.20;;;10.90;;
41705;SDS011;27385;51.096;17.190;2022-07-23T03:05:14;19.70;;;9.50;;
41705;SDS011;27385;51.096;17.190;2022-07-23T03:07:45;23.10;;;10.00;;
41705;SDS011;27385;51.096;17.190;2022-07-23T03:10:17;23.80;;;10.00;;
41705;SDS011;27385;51.096;17.190;2022-07-23T03:12:49;23.90;;;8.90;;
41705;SDS011;27385;51.096;17.190;2022-07-23T03:15:20;19.60;;;9.80;;
41705;SDS011;27385;51.096;17.190;2022-07-23T03:17:51;23.10;;;9.90;;
41705;SDS011;27385;51.096;17.190;2022-07-23T03:20:22;26.40;;;10.90;;
41705;SDS011;27385;51.096;17.190;2022-07-23T03:22:53;23.70;;;11.30;;
41705;SDS011;27385;51.096;17.190;2022-07-23T03:25:27;21.10;;;11.20;;
41705;SDS011;27385;51.096;17.190;2022-07-23T03:28:00;20.10;;;10.70;;
41705;SDS011;27385;51.096;17.190;2022-07-23T03:30:31;21.90;;;11.30;;
41705;SDS011;27385;51.096;17.190;2022-07-23T03:33:03;21.70;;;9.40;;
41705;SDS011;27385;51.096;17.190;2022-07-23T03:35:34;21.00;;;11.20;;
41705;SDS011;27385;51.096;17.190;2022-07-23T03:38:06;19.10;;;9.60;;
41705;SDS011;27385;51.096;17.190;2022-07-23T03:40:38;21.70;;;9.70;;
41705;SDS011;27385;51.096;17.190;2022-07-23T03:43:09;22.10;;;10.40;;
41705;SDS011;27385;51.096;17.190;2022-07-23T03:45:41;19.50;;;10.00;;
41705;SDS011;27385;51.096;17.190;2022-07-23T03:48:13;20.90;;;10.00;;
41705;SDS011;27385;51.096;17.190;2022-07-23T03:50:44;18.30;;;9.70;;
41705;SDS011;27385;51.096;17.190;2022-07-23T03:53:15;18.90;;;9.60;;
41705;SDS011;27385;51.096;17.190;2022-07-23T03:55:46;21.70;;;11.80;;
41705;SDS011;27385;51.096;17.190;2022-07-23T03:58:17;19.70;;;10.40;;
41705;SDS011;27385;51.096;17.190;2022-07-23T04:00:49;19.60;;;10.70;;
41705;SDS011;27385;51.096;17.190;2022-07-23T04:03:20;20.30;;;10.60;;
41705;SDS011;27385;51.096;17.190;2022-07-23T04:05:51;19.80;;;10.50;;
41705;SDS011;27385;51.096;17.190;2022-07-23T04:08:24;20.40;;;10.40;;
41705;SDS011;27385;51.096;17.190;2022-07-23T04:10:56;22.40;;;11.50;;
41705;SDS011;27385;51.096;17.190;2022-07-23T04:13:27;22.30;;;11.50;;
41705;SDS011;27385;51.096;17.190;2022-07-23T04:16:00;23.70;;;11.80;;
41705;SDS011;27385;51.096;17.190;2022-07-23T04:18:31;20.00;;;11.80;;
41705;SDS011;27385;51.096;17.190;2022-07-23T04:21:03;23.90;;;11.60;;
41705;SDS011;27385;51.096;17.190;2022-07-23T04:23:37;22.90;;;11.60;;
41705;SDS011;27385;51.096;17.190;2022-07-23T04:26:08;25.20;;;12.30;;
41705;SDS011;27385;51.096;17.190;2022-07-23T04:28:39;25.30;;;11.80;;
41705;SDS011;27385;51.096;17.190;2022-07-23T04:31:11;23.80;;;11.80;;
41705;SDS011;27385;51.096;17.190;2022-07-23T04:33:42;21.60;;;12.30;;
41705;SDS011;27385;51.096;17.190;2022-07-23T04:36:13;24.10;;;12.50;;
41705;SDS011;27385;51.096;17.190;2022-07-23T04:38:44;21.30;;;11.20;;
41705;SDS011;27385;51.096;17.190;2022-07-23T04:41:15;21.70;;;10.80;;
41705;SDS011;27385;51.096;17.190;2022-07-23T04:43:46;24.80;;;11.90;;
41705;SDS011;27385;51.096;17.190;2022-07-23T04:46:18;21.90;;;12.90;;
41705;SDS011;27385;51.096;17.190;2022-07-23T04:48:49;23.90;;;11.90;;
41705;SDS011;27385;51.096;17.190;2022-07-23T04:51:21;22.40;;;11.30;;
41705;SDS011;27385;51.096;17.190;2022-07-23T04:53:53;18.50;;;10.20;;
41705;SDS011;27385;51.096;17.190;2022-07-23T04:56:24;18.90;;;10.10;;
41705;SDS011;27385;51.096;17.190;2022-07-23T04:58:55;23.90;;;10.70;;
41705;SDS011;27385;51.096;17.190;2022-07-23T05:01:26;21.10;;;10.60;;
41705;SDS011;27385;51.096;17.190;2022-07-23T05:03:58;19.60;;;9.90;;
41705;SDS011;27385;51.096;17.190;2022-07-23T05:06:29;20.90;;;10.20;;
41705;SDS011;27385;51.096;17.190;2022-07-23T05:09:00;20.30;;;9.70;;
41705;SDS011;27385;51.096;17.190;2022-07-23T05:11:31;22.70;;;10.40;;
41705;SDS011;27385;51.096;17.190;2022-07-23T05:14:02;19.90;;;10.10;;
41705;SDS011;27385;51.096;17.190;2022-07-23T05:16:34;20.20;;;9.30;;
41705;SDS011;27385;51.096;17.190;2022-07-23T05:19:05;17.10;;;8.70;;
41705;SDS011;27385;51.096;17.190;2022-07-23T05:21:37;21.00;;;9.20;;
41705;SDS011;27385;51.096;17.190;2022-07-23T05:24:08;18.50;;;8.10;;
41705;SDS011;27385;51.096;17.190;2022-07-23T05:26:39;17.10;;;8.50;;
41705;SDS011;27385;51.096;17.190;2022-07-23T05:29:11;18.30;;;8.40;;
41705;SDS011;27385;51.096;17.190;2022-07-23T05:31:42;14.70;;;7.00;;
41705;SDS011;27385;51.096;17.190;2022-07-23T05:34:13;17.50;;;7.40;;
41705;SDS011;27385;51.096;17.190;2022-07-23T05:36:44;18.80;;;8.10;;
41705;SDS011;27385;51.096;17.190;2022-07-23T05:39:16;18.20;;;8.90;;
41705;SDS011;27385;51.096;17.190;2022-07-23T05:41:48;17.10;;;7.60;;
41705;SDS011;27385;51.096;17.190;2022-07-23T05:44:20;16.70;;;7.70;;
41705;SDS011;27385;51.096;17.190;2022-07-23T05:46:51;18.40;;;8.00;;
41705;SDS011;27385;51.096;17.190;2022-07-23T05:49:22;16.20;;;8.70;;
41705;SDS011;27385;51.096;17.190;2022-07-23T05:51:54;15.10;;;7.10;;
41705;SDS011;27385;51.096;17.190;2022-07-23T05:54:25;17.30;;;8.50;;
41705;SDS011;27385;51.096;17.190;2022-07-23T05:56:56;15.80;;;7.40;;
41705;SDS011;27385;51.096;17.190;2022-07-23T05:59:27;16.30;;;7.10;;
41705;SDS011;27385;51.096;17.190;2022-07-23T06:02:00;15.60;;;7.50;;
41705;SDS011;27385;51.096;17.190;2022-07-23T06:04:31;16.80;;;7.50;;
41705;SDS011;27385;51.096;17.190;2022-07-23T06:07:03;15.20;;;7.50;;
41705;SDS011;27385;51.096;17.190;2022-07-23T06:09:34;13.10;;;5.80;;
41705;SDS011;27385;51.096;17.190;2022-07-23T06:12:06;12.40;;;6.00;;
41705;SDS011;27385;51.096;17.190;2022-07-23T06:14:38;17.70;;;6.50;;
41705;SDS011;27385;51.096;17.190;2022-07-23T06:17:09;13.30;;;6.40;;
41705;SDS011;27385;51.096;17.190;2022-07-23T06:19:40;15.70;;;6.90;;
41705;SDS011;27385;51.096;17.190;2022-07-23T06:22:11;13.00;;;6.50;;
41705;SDS011;27385;51.096;17.190;2022-07-23T06:24:42;15.30;;;7.40;;
41705;SDS011;27385;51.096;17.190;2022-07-23T06:27:14;13.50;;;6.70;;
41705;SDS011;27385;51.096;17.190;2022-07-23T06:29:45;16.30;;;7.20;;
41705;SDS011;27385;51.096;17.190;2022-07-23T06:32:16;16.40;;;7.00;;
41705;SDS011;27385;51.096;17.190;2022-07-23T06:34:48;14.20;;;6.50;;
41705;SDS011;27385;51.096;17.190;2022-07-23T06:37:19;12.50;;;6.10;;
41705;SDS011;27385;51.096;17.190;2022-07-23T06:39:50;12.60;;;6.50;;
41705;SDS011;27385;51.096;17.190;2022-07-23T06:42:21;13.60;;;6.60;;
41705;SDS011;27385;51.096;17.190;2022-07-23T06:44:53;13.30;;;6.70;;
41705;SDS011;27385;51.096;17.190;2022-07-23T06:47:26;12.50;;;6.60;;
41705;SDS011;27385;51.096;17.190;2022-07-23T06:49:57;13.90;;;6.80;;
41705;SDS011;27385;51.096;17.190;2022-07-23T06:52:28;17.40;;;7.10;;
41705;SDS011;27385;51.096;17.190;2022-07-23T06:55:00;16.20;;;7.40;;
41705;SDS011;27385;51.096;17.190;2022-07-23T06:57:32;14.30;;;7.00;;
41705;SDS011;27385;51.096;17.190;2022-07-23T07:00:03;11.90;;;5.90;;
41705;SDS011;27385;51.096;17.190;2022-07-23T07:02:36;13.10;;;6.80;;
41705;SDS011;27385;51.096;17.190;2022-07-23T07:05:08;17.70;;;7.10;;
41705;SDS011;27385;51.096;17.190;2022-07-23T07:07:39;14.20;;;6.30;;
41705;SDS011;27385;51.096;17.190;2022-07-23T07:10:11;16.40;;;6.10;;
41705;SDS011;27385;51.096;17.190;2022-07-23T07:12:44;14.80;;;6.50;;
41705;SDS011;27385;51.096;17.190;2022-07-23T07:15:15;13.60;;;7.00;;
41705;SDS011;27385;51.096;17.190;2022-07-23T07:17:46;13.80;;;6.30;;
41705;SDS011;27385;51.096;17.190;2022-07-23T07:20:17;16.40;;;6.60;;
41705;SDS011;27385;51.096;17.190;2022-07-23T07:22:49;13.70;;;6.50;;
41705;SDS011;27385;51.096;17.190;2022-07-23T07:25:20;14.60;;;6.60;;
41705;SDS011;27385;51.096;17.190;2022-07-23T07:27:51;13.30;;;6.00;;
41705;SDS011;27385;51.096;17.190;2022-07-23T07:30:23;15.90;;;7.20;;
41705;SDS011;27385;51.096;17.190;2022-07-23T07:32:54;11.50;;;6.20;;
41705;SDS011;27385;51.096;17.190;2022-07-23T07:35:26;11.40;;;6.00;;
41705;SDS011;27385;51.096;17.190;2022-07-23T07:37:59;13.40;;;6.10;;
41705;SDS011;27385;51.096;17.190;2022-07-23T07:40:31;14.30;;;6.70;;
41705;SDS011;27385;51.096;17.190;2022-07-23T07:43:02;13.50;;;6.20;;
41705;SDS011;27385;51.096;17.190;2022-07-23T07:45:33;14.10;;;5.60;;
41705;SDS011;27385;51.096;17.190;2022-07-23T07:48:06;12.60;;;6.00;;
41705;SDS011;27385;51.096;17.190;2022-07-23T07:50:38;14.80;;;6.50;;
41705;SDS011;27385;51.096;17.190;2022-07-23T07:53:09;10.80;;;5.10;;
41705;SDS011;27385;51.096;17.190;2022-07-23T07:55:40;13.30;;;5.90;;
41705;SDS011;27385;51.096;17.190;2022-07-23T07:58:12;13.90;;;5.60;;
41705;SDS011;27385;51.096;17.190;2022-07-23T08:00:43;13.10;;;6.00;;
41705;SDS011;27385;51.096;17.190;2022-07-23T08:03:14;12.90;;;6.00;;
41705;SDS011;27385;51.096;17.190;2022-07-23T08:05:46;11.90;;;5.90;;
41705;SDS011;27385;51.096;17.190;2022-07-23T08:08:17;11.90;;;5.60;;
41705;SDS011;27385;51.096;17.190;2022-07-23T08:10:48;11.20;;;5.60;;
41705;SDS011;27385;51.096;17.190;2022-07-23T08:13:20;13.70;;;6.50;;
41705;SDS011;27385;51.096;17.190;2022-07-23T08:15:51;11.80;;;5.90;;
41705;SDS011;27385;51.096;17.190;2022-07-23T08:18:23;12.40;;;5.80;;
41705;SDS011;27385;51.096;17.190;2022-07-23T08:20:55;15.80;;;6.00;;
41705;SDS011;27385;51.096;17.190;2022-07-23T08:23:26;12.50;;;6.30;;
41705;SDS011;27385;51.096;17.190;2022-07-23T08:25:58;13.20;;;6.20;;
41705;SDS011;27385;51.096;17.190;2022-07-23T08:28:30;15.30;;;6.50;;
41705;SDS011;27385;51.096;17.190;2022-07-23T08:31:01;12.70;;;5.80;;
41705;SDS011;27385;51.096;17.190;2022-07-23T08:33:35;11.80;;;5.70;;
41705;SDS011;27385;51.096;17.190;2022-07-23T08:36:07;11.80;;;6.20;;
41705;SDS011;27385;51.096;17.190;2022-07-23T08:38:39;12.10;;;6.00;;
41705;SDS011;27385;51.096;17.190;2022-07-23T08:41:12;13.70;;;6.50;;
41705;SDS011;27385;51.096;17.190;2022-07-23T08:43:45;13.00;;;6.10;;
41705;SDS011;27385;51.096;17.190;2022-07-23T08:46:17;12.50;;;6.40;;
41705;SDS011;27385;51.096;17.190;2022-07-23T08:48:51;13.70;;;6.10;;
41705;SDS011;27385;51.096;17.190;2022-07-23T08:51:23;12.70;;;6.00;;
41705;SDS011;27385;51.096;17.190;2022-07-23T08:53:57;13.20;;;6.80;;
41705;SDS011;27385;51.096;17.190;2022-07-23T08:56:29;12.10;;;6.20;;
41705;SDS011;27385;51.096;17.190;2022-07-23T08:59:01;12.80;;;6.10;;
41705;SDS011;27385;51.096;17.190;2022-07-23T09:01:32;12.60;;;6.50;;
41705;SDS011;27385;51.096;17.190;2022-07-23T09:04:05;12.80;;;6.50;;
41705;SDS011;27385;51.096;17.190;2022-07-23T09:06:41;12.60;;;5.60;;
41705;SDS011;27385;51.096;17.190;2022-07-23T09:09:20;16.20;;;6.60;;
41705;SDS011;27385;51.096;17.190;2022-07-23T09:12:05;13.40;;;6.10;;
41705;SDS011;27385;51.096;17.190;2022-07-23T09:14:39;15.40;;;6.80;;
41705;SDS011;27385;51.096;17.190;2022-07-23T09:17:13;13.80;;;7.40;;
41705;SDS011;27385;51.096;17.190;2022-07-23T09:19:46;15.50;;;7.10;;
41705;SDS011;27385;51.096;17.190;2022-07-23T09:22:18;13.20;;;7.00;;
41705;SDS011;27385;51.096;17.190;2022-07-23T09:27:48;11.80;;;6.00;;
41705;SDS011;27385;51.096;17.190;2022-07-23T09:30:23;14.90;;;6.40;;
41705;SDS011;27385;51.096;17.190;2022-07-23T09:33:05;15.10;;;6.80;;
41705;SDS011;27385;51.096;17.190;2022-07-23T09:35:47;11.70;;;6.70;;
41705;SDS011;27385;51.096;17.190;2022-07-23T09:38:21;13.10;;;6.50;;
41705;SDS011;27385;51.096;17.190;2022-07-23T09:41:06;13.30;;;6.50;;
41705;SDS011;27385;51.096;17.190;2022-07-23T09:43:38;13.20;;;6.20;;
41705;SDS011;27385;51.096;17.190;2022-07-23T09:46:19;15.70;;;6.20;;
41705;SDS011;27385;51.096;17.190;2022-07-23T09:48:52;14.40;;;6.30;;
41705;SDS011;27385;51.096;17.190;2022-07-23T09:51:25;16.70;;;6.10;;
41705;SDS011;27385;51.096;17.190;2022-07-23T09:54:04;15.20;;;6.60;;
41705;SDS011;27385;51.096;17.190;2022-07-23T09:56:49;14.80;;;5.80;;
41705;SDS011;27385;51.096;17.190;2022-07-23T09:59:24;13.40;;;6.00;;
41705;SDS011;27385;51.096;17.190;2022-07-23T10:01:58;14.00;;;4.40;;
41705;SDS011;27385;51.096;17.190;2022-07-23T10:04:32;16.70;;;4.50;;
41705;SDS011;27385;51.096;17.190;2022-07-23T10:07:04;10.80;;;4.30;;
41705;SDS011;27385;51.096;17.190;2022-07-23T10:09:40;14.40;;;6.60;;
41705;SDS011;27385;51.096;17.190;2022-07-23T10:12:12;13.90;;;5.90;;
41705;SDS011;27385;51.096;17.190;2022-07-23T10:15:03;14.90;;;5.90;;
41705;SDS011;27385;51.096;17.190;2022-07-23T10:17:36;15.30;;;6.00;;
41705;SDS011;27385;51.096;17.190;2022-07-23T10:20:07;17.70;;;6.00;;
41705;SDS011;27385;51.096;17.190;2022-07-23T10:22:42;14.30;;;5.20;;
41705;SDS011;27385;51.096;17.190;2022-07-23T10:25:21;10.80;;;5.80;;
41705;SDS011;27385;51.096;17.190;2022-07-23T10:28:06;12.20;;;5.60;;
41705;SDS011;27385;51.096;17.190;2022-07-23T10:30:52;11.80;;;5.30;;
41705;SDS011;27385;51.096;17.190;2022-07-23T10:33:38;13.70;;;5.90;;
41705;SDS011;27385;51.096;17.190;2022-07-23T10:36:22;11.70;;;4.80;;
41705;SDS011;27385;51.096;17.190;2022-07-23T10:39:05;14.90;;;5.60;;
41705;SDS011;27385;51.096;17.190;2022-07-23T10:41:41;14.90;;;5.80;;
41705;SDS011;27385;51.096;17.190;2022-07-23T10:44:14;11.70;;;5.40;;
41705;SDS011;27385;51.096;17.190;2022-07-23T10:46:57;12.10;;;5.60;;
41705;SDS011;27385;51.096;17.190;2022-07-23T10:49:43;12.80;;;4.90;;
41705;SDS011;27385;51.096;17.190;2022-07-23T10:52:18;9.50;;;4.00;;
41705;SDS011;27385;51.096;17.190;2022-07-23T10:54:52;8.00;;;3.70;;
41705;SDS011;27385;51.096;17.190;2022-07-23T10:57:25;12.90;;;4.50;;
41705;SDS011;27385;51.096;17.190;2022-07-23T11:03:02;14.10;;;5.10;;
41705;SDS011;27385;51.096;17.190;2022-07-23T11:05:56;10.80;;;5.10;;
41705;SDS011;27385;51.096;17.190;2022-07-23T11:08:27;12.40;;;6.10;;
41705;SDS011;27385;51.096;17.190;2022-07-23T11:13:48;14.80;;;6.10;;
41705;SDS011;27385;51.096;17.190;2022-07-23T11:16:30;13.50;;;6.10;;
41705;SDS011;27385;51.096;17.190;2022-07-23T11:19:15;12.20;;;5.50;;
41705;SDS011;27385;51.096;17.190;2022-07-23T11:21:47;15.90;;;6.30;;
41705;SDS011;27385;51.096;17.190;2022-07-23T11:24:24;12.90;;;6.20;;
41705;SDS011;27385;51.096;17.190;2022-07-23T11:27:03;17.50;;;7.20;;
41705;SDS011;27385;51.096;17.190;2022-07-23T11:29:48;16.80;;;8.00;;
41705;SDS011;27385;51.096;17.190;2022-07-23T11:32:29;15.40;;;6.70;;
41705;SDS011;27385;51.096;17.190;2022-07-23T11:35:21;19.40;;;8.20;;
41705;SDS011;27385;51.096;17.190;2022-07-23T11:38:02;17.20;;;8.70;;
41705;SDS011;27385;51.096;17.190;2022-07-23T11:40:36;15.80;;;8.30;;
41705;SDS011;27385;51.096;17.190;2022-07-23T11:43:09;15.10;;;8.30;;
41705;SDS011;27385;51.096;17.190;2022-07-23T11:45:41;15.40;;;7.40;;
41705;SDS011;27385;51.096;17.190;2022-07-23T11:48:19;16.20;;;8.60;;
41705;SDS011;27385;51.096;17.190;2022-07-23T11:50:54;13.30;;;6.90;;
41705;SDS011;27385;51.096;17.190;2022-07-23T11:53:27;16.30;;;8.30;;
41705;SDS011;27385;51.096;17.190;2022-07-23T11:56:05;14.00;;;7.60;;
41705;SDS011;27385;51.096;17.190;2022-07-23T11:58:39;16.20;;;8.00;;
41705;SDS011;27385;51.096;17.190;2022-07-23T12:01:26;19.80;;;8.40;;
41705;SDS011;27385;51.096;17.190;2022-07-23T12:03:57;16.90;;;9.40;;
41705;SDS011;27385;51.096;17.190;2022-07-23T12:06:29;16.60;;;9.00;;
41705;SDS011;27385;51.096;17.190;2022-07-23T12:09:08;16.60;;;9.00;;
41705;SDS011;27385;51.096;17.190;2022-07-23T12:14:55;15.20;;;7.70;;
41705;SDS011;27385;51.096;17.190;2022-07-23T12:17:31;16.60;;;8.40;;
41705;SDS011;27385;51.096;17.190;2022-07-23T12:20:06;16.10;;;8.70;;
41705;SDS011;27385;51.096;17.190;2022-07-23T12:22:42;18.10;;;8.20;;
41705;SDS011;27385;51.096;17.190;2022-07-23T12:25:16;16.50;;;8.90;;
41705;SDS011;27385;51.096;17.190;2022-07-23T12:27:59;18.60;;;9.10;;
41705;SDS011;27385;51.096;17.190;2022-07-23T12:30:39;15.70;;;8.50;;
41705;SDS011;27385;51.096;17.190;2022-07-23T12:33:13;16.40;;;8.10;;
41705;SDS011;27385;51.096;17.190;2022-07-23T12:35:50;16.50;;;9.10;;
41705;SDS011;27385;51.096;17.190;2022-07-23T12:38:25;15.40;;;8.80;;
41705;SDS011;27385;51.096;17.190;2022-07-23T12:41:06;17.60;;;9.20;;
41705;SDS011;27385;51.096;17.190;2022-07-23T12:43:38;16.90;;;8.70;;
41705;SDS011;27385;51.096;17.190;2022-07-23T12:46:13;14.60;;;8.90;;
41705;SDS011;27385;51.096;17.190;2022-07-23T12:48:51;18.60;;;9.20;;
41705;SDS011;27385;51.096;17.190;2022-07-23T12:51:24;17.10;;;8.70;;
41705;SDS011;27385;51.096;17.190;2022-07-23T12:53:58;17.70;;;7.70;;
41705;SDS011;27385;51.096;17.190;2022-07-23T12:56:34;15.40;;;7.90;;
41705;SDS011;27385;51.096;17.190;2022-07-23T12:59:08;13.10;;;7.90;;
41705;SDS011;27385;51.096;17.190;2022-07-23T13:01:44;11.50;;;5.70;;
41705;SDS011;27385;51.096;17.190;2022-07-23T13:04:25;13.30;;;6.00;;
41705;SDS011;27385;51.096;17.190;2022-07-23T13:06:57;14.20;;;6.20;;
41705;SDS011;27385;51.096;17.190;2022-07-23T13:09:30;11.10;;;5.80;;
41705;SDS011;27385;51.096;17.190;2022-07-23T13:12:03;11.90;;;5.30;;
41705;SDS011;27385;51.096;17.190;2022-07-23T13:14:37;9.80;;;4.60;;
41705;SDS011;27385;51.096;17.190;2022-07-23T13:17:09;13.00;;;5.30;;
41705;SDS011;27385;51.096;17.190;2022-07-23T13:19:41;11.40;;;4.80;;
41705;SDS011;27385;51.096;17.190;2022-07-23T13:22:13;9.30;;;4.40;;
41705;SDS011;27385;51.096;17.190;2022-07-23T13:24:46;10.40;;;4.50;;
41705;SDS011;27385;51.096;17.190;2022-07-23T13:27:18;9.50;;;3.80;;
41705;SDS011;27385;51.096;17.190;2022-07-23T13:29:53;10.60;;;4.70;;
41705;SDS011;27385;51.096;17.190;2022-07-23T13:32:25;11.80;;;4.70;;
41705;SDS011;27385;51.096;17.190;2022-07-23T13:34:57;11.30;;;5.00;;
41705;SDS011;27385;51.096;17.190;2022-07-23T13:37:29;12.70;;;5.70;;
41705;SDS011;27385;51.096;17.190;2022-07-23T13:40:00;12.00;;;5.00;;
41705;SDS011;27385;51.096;17.190;2022-07-23T13:42:32;10.60;;;4.90;;
41705;SDS011;27385;51.096;17.190;2022-07-23T13:45:06;12.50;;;6.20;;
41705;SDS011;27385;51.096;17.190;2022-07-23T13:47:39;12.20;;;6.40;;
41705;SDS011;27385;51.096;17.190;2022-07-23T13:50:10;10.10;;;4.90;;
41705;SDS011;27385;51.096;17.190;2022-07-23T13:52:44;11.50;;;5.50;;
41705;SDS011;27385;51.096;17.190;2022-07-23T13:55:15;11.60;;;5.50;;
41705;SDS011;27385;51.096;17.190;2022-07-23T13:57:48;10.90;;;5.70;;
41705;SDS011;27385;51.096;17.190;2022-07-23T14:00:20;10.90;;;5.40;;
41705;SDS011;27385;51.096;17.190;2022-07-23T14:02:53;11.80;;;5.50;;
41705;SDS011;27385;51.096;17.190;2022-07-23T14:05:25;12.60;;;6.70;;
41705;SDS011;27385;51.096;17.190;2022-07-23T14:07:57;15.70;;;7.50;;
41705;SDS011;27385;51.096;17.190;2022-07-23T14:10:29;11.90;;;5.60;;
41705;SDS011;27385;51.096;17.190;2022-07-23T14:13:01;14.40;;;6.30;;
41705;SDS011;27385;51.096;17.190;2022-07-23T14:15:33;13.50;;;5.90;;
41705;SDS011;27385;51.096;17.190;2022-07-23T14:18:07;15.30;;;6.30;;
41705;SDS011;27385;51.096;17.190;2022-07-23T14:20:38;11.50;;;5.30;;
41705;SDS011;27385;51.096;17.190;2022-07-23T14:23:11;12.60;;;7.00;;
41705;SDS011;27385;51.096;17.190;2022-07-23T14:25:43;13.90;;;6.50;;
41705;SDS011;27385;51.096;17.190;2022-07-23T14:28:15;16.70;;;6.70;;
41705;SDS011;27385;51.096;17.190;2022-07-23T14:30:47;12.00;;;6.90;;
41705;SDS011;27385;51.096;17.190;2022-07-23T14:33:19;17.10;;;9.20;;
41705;SDS011;27385;51.096;17.190;2022-07-23T14:35:51;17.50;;;10.70;;
41705;SDS011;27385;51.096;17.190;2022-07-23T14:38:22;16.50;;;7.90;;
41705;SDS011;27385;51.096;17.190;2022-07-23T14:40:54;17.00;;;8.60;;
41705;SDS011;27385;51.096;17.190;2022-07-23T14:43:25;14.50;;;7.10;;
41705;SDS011;27385;51.096;17.190;2022-07-23T14:45:57;17.90;;;12.60;;
41705;SDS011;27385;51.096;17.190;2022-07-23T14:48:28;17.40;;;9.00;;
41705;SDS011;27385;51.096;17.190;2022-07-23T14:51:00;18.10;;;9.40;;
41705;SDS011;27385;51.096;17.190;2022-07-23T14:53:32;17.00;;;7.80;;
41705;SDS011;27385;51.096;17.190;2022-07-23T14:56:04;17.90;;;8.60;;
41705;SDS011;27385;51.096;17.190;2022-07-23T14:58:36;14.80;;;7.80;;
41705;SDS011;27385;51.096;17.190;2022-07-23T15:01:09;18.00;;;9.60;;
41705;SDS011;27385;51.096;17.190;2022-07-23T15:03:41;18.10;;;10.60;;